Walther Herwig III — DBFR — position and weather

sailwx.info

Track history (hours):
 
Tides and Currents Weather Stations Pressure Air Temp Water Temp Dewpoint Dewpoint Depression Visibility Wind Speed Wind Dir Waves Ship Positions

Oceanographic research ship Walther Herwig III (Germany)

Detailed information on ship capabilities available from University of Delaware's Ocean Information Center.

Last reported at 2017-Dec-17 09:00 UTC. Time now 2017-Dec-17 10:05 UTC.
Position N 54°06' E 007°48'.

Length 63.2 m; beam 14.8 m; draft 5.5 m.

Type: Fishing. MMSI: 211215500.

Wind from 020 at 8 knots

Barometer 1019.6 mb
Air temperature 4.9 ° C
Dewpoint 0.5 ° C
Water temperature 6.9 ° C

Date/timePositionNaut miles runAvg speedWind from/ knotsBaromVisibWave heightAir tempDewpointWater temp
2017-Dec-17 09:00N 54°06' E 007°48'0 0.0 020 / 81019.6 4.9 0.5 6.9
2017-Dec-17 08:00N 54°06' E 007°48'0 0.0 360 / 101018.9 5.2-1.8 6.9
2017-Dec-17 07:00N 54°06' E 007°48'4 3.5 360 / 121018.3 4.9-0.6 6.4
2017-Dec-17 06:00N 54°06' E 007°54'4 3.5 350 / 121017.7 5.0-1.3 6.5
2017-Dec-17 05:00N 54°06' E 008°00'7 7.0 360 / 121017.2 4.8-0.9 6.6
2017-Dec-17 04:00N 54°12' E 007°54'4 3.5 360 / 121016.2 4.4-1.5 6.7
2017-Dec-17 03:00N 54°12' E 008°00'4 3.5 020 / 101015.4 4.0-1.4 6.7
2017-Dec-17 02:00N 54°12' E 007°54'4 3.5 040 / 121014.3 4.9-0.3 7.2
2017-Dec-17 01:00N 54°12' E 008°00'0 0.0 330 / 171013.2 5.9-0.0 7.2
2017-Dec-17 00:00N 54°12' E 008°00'4 3.5 330 / 191012.7 5.8 0.2 7.2
2017-Dec-16 23:00N 54°12' E 007°54'0 0.0 330 / 171012.0 5.7 0.5 7.5
2017-Dec-16 22:00N 54°12' E 007°54'4 3.5 310 / 81011.6 4.8-0.1 7.5
2017-Dec-16 21:00N 54°12' E 008°00'0 0.0 300 / 171010.9 4.7 1.2 7.0
2017-Dec-16 20:00N 54°12' E 008°00'7 6.9 360 / 161010.4 4.4 0.9 6.7
2017-Dec-16 19:00N 54°18' E 007°54'1110.5 320 / 161010.0 6.4 1.3 6.6
2017-Dec-16 18:00N 54°18' E 007°36'4 3.5 320 / 171009.5 5.7-1.0 7.9
2017-Dec-16 17:00N 54°18' E 007°30'7 6.9 330 / 231008.8 5.6 1.8 8.0
2017-Dec-16 16:00N 54°24' E 007°36'3 3.5 340 / 191007.7 6.0 0.9 7.5
2017-Dec-16 15:00N 54°24' E 007°30'3 3.5 330 / 191007.3 6.2 0.6 7.5
2017-Dec-16 14:00N 54°24' E 007°24'1212.1 330 / 161006.9 6.1 0.7 7.9
2017-Dec-16 13:00N 54°30' E 007°06'9 9.2 350 / 191006.5 5.4-0.1 7.9
2017-Dec-16 12:00N 54°36' E 006°54'1615.9 330 / 141006.2 5.8 1.2 8.5
2017-Dec-16 11:00N 54°48' E 006°36'1212.0 310 / 211005.9 6.4 1.1 8.9
2017-Dec-16 10:00N 54°54' E 006°18'6 6.0 330 / 191005.6 7.2 1.2 9.1
2017-Dec-16 09:00N 55°00' E 006°18'3 3.4 350 / 251004.2 5.4 0.4 9.1
2017-Dec-16 08:00N 55°00' E 006°24'3 3.4 310 / 231003.9 6.3-0.4 9.1
2017-Dec-16 07:00N 55°00' E 006°18'6 6.0 320 / 231003.3 6.1-0.6 9.1
2017-Dec-16 06:00N 54°54' E 006°18'0 0.0 310 / 231002.6 6.1 0.5 9.1
2017-Dec-16 05:00N 54°54' E 006°18'0 0.0 320 / 121002.5 6.7 1.0 9.1
2017-Dec-16 04:00N 54°54' E 006°18'0 0.0 330 / 211002.0 6.1 0.4 9.1
2017-Dec-16 03:00N 54°54' E 006°18'0 0.0 310 / 211001.7 6.4 0.5 9.1
2017-Dec-16 02:00N 54°54' E 006°18'0 0.0 310 / 211001.4 6.4 0.8 9.1
2017-Dec-16 01:00N 54°54' E 006°18'0 0.0 340 / 231000.9 6.1 0.7 9.1
2017-Dec-16 00:00N 54°54' E 006°18'0 0.0 310 / 231000.7 6.6-0.5 9.1
2017-Dec-15 23:00N 54°54' E 006°18'0 0.0 330 / 211000.4 7.2 2.2 9.2
2017-Dec-15 22:00N 54°54' E 006°18'0 0.0 340 / 23999.8 6.8 1.9 9.2
2017-Dec-15 21:00N 54°54' E 006°18'3 3.5 360 / 17999.3 7.0 1.4 9.2
2017-Dec-15 20:00N 54°54' E 006°24'0 0.0 350 / 19998.6 7.5 0.7 9.1
2017-Dec-15 19:00N 54°54' E 006°24'3 3.5 340 / 10998.1 6.8 2.2 9.1
2017-Dec-15 18:00N 54°54' E 006°18'0 0.0 330 / 12997.5 6.8 2.3 9.2
2017-Dec-15 17:00N 54°54' E 006°18'0 0.0 320 / 16997.1 6.7 1.5 9.2
2017-Dec-15 16:00N 54°54' E 006°18'7 6.9 330 / 12996.4 6.4 1.7 9.2
2017-Dec-15 15:00N 55°00' E 006°24'7 6.9 320 / 17995.6 6.2 2.2 9.1
2017-Dec-15 14:00N 55°06' E 006°30'251.4 290 / 14994.7 6.4 1.1 9.1
2017-Dec-15 13:57N 55°04' E 006°29'812.3
2017-Dec-15 13:19N 55°11' E 006°36'824.3
2017-Dec-15 13:00N 55°18' E 006°42'374.9 330 / 10994.2 6.6 2.2 8.7
2017-Dec-15 12:57N 55°15' E 006°40'512.2
2017-Dec-15 12:30N 55°19' E 006°45'612.4
2017-Dec-15 12:00N 55°22' E 006°55'3242.4
2017-Dec-15 12:00N 55°24' E 007°00'3 5.6 330 / 17993.4 5.7 2.1 8.6
2017-Dec-15 11:31N 55°25' E 007°04'611.1
2017-Dec-15 11:01N 55°29' E 007°12'6 9.0
2017-Dec-15 10:21N 55°34' E 007°08'1 3.6
2017-Dec-15 09:59N 55°35' E 007°09'2 1.6
2017-Dec-15 09:00N 55°36' E 007°06'2 7.7 270 / 8991.2 6.3 2.7 8.4
2017-Dec-15 08:46N 55°35' E 007°09'0 0.9
2017-Dec-15 08:20N 55°36' E 007°09'2 4.5
2017-Dec-15 08:00N 55°36' E 007°06'2175.8 250 / 6990.5 6.1 2.0 8.3
2017-Dec-15 07:59N 55°35' E 007°09'2 1.9
2017-Dec-15 07:00N 55°36' E 007°06'6 5.9 200 / 8989.7 5.9 2.1 8.3
2017-Dec-15 06:00N 55°31' E 007°11'197.9
2017-Dec-15 06:00N 55°30' E 007°12'1 2.2 160 / 4989.2 5.2 2.0 8.3
2017-Dec-15 05:27N 55°31' E 007°10'1 2.7
2017-Dec-15 05:00N 55°30' E 007°12'2 3.6 330 / 4988.6 5.1 1.6 8.3
2017-Dec-15 04:18N 55°30' E 007°08'1 3.7
2017-Dec-15 04:01N 55°30' E 007°06'0 6.6
2017-Dec-15 04:00N 55°30' E 007°06'7 6.8 010 / 8987.7 5.1 2.1 8.7
2017-Dec-15 03:00N 55°30' E 006°54'9 9.1 350 / 8987.0 5.3 1.7 8.7
2017-Dec-15 02:00N 55°24' E 006°42'7 6.8
2017-Dec-15 01:00N 55°24' E 006°30'3 3.4 230 / 12985.8 6.6 1.8 8.9
2017-Dec-15 00:00N 55°24' E 006°24'7 6.8 280 / 14985.4 6.4 2.6 9.3
2017-Dec-14 23:00N 55°24' E 006°12'9 9.1 240 / 12984.8 7.0 1.3 9.0
2017-Dec-14 22:00N 55°18' E 006°00'7 6.8 230 / 12984.6 6.4 2.2 9.0
2017-Dec-14 21:00N 55°18' E 005°48'7 6.8 220 / 14984.2 5.8 1.3 8.7
2017-Dec-14 20:00N 55°18' E 005°36'9 9.1 260 / 8984.1 6.0 2.8 8.4
2017-Dec-14 19:00N 55°12' E 005°24'1211.9 270 / 10983.8 5.6 1.6 8.3
2017-Dec-14 18:00N 55°18' E 005°06'1413.7 260 / 21983.3 5.7 1.6 8.4
2017-Dec-14 17:00N 55°18' E 004°42'9 9.1 240 / 19982.9 6.2 1.7 8.0
2017-Dec-14 16:00N 55°24' E 004°30'3 3.4 230 / 14982.9 6.2 0.6 7.9
2017-Dec-14 15:00N 55°24' E 004°24'3 3.4 230 / 19982.8 6.1 1.2 7.9
2017-Dec-14 14:00N 55°24' E 004°30'0 0.0 240 / 19982.6 6.1 0.6 7.9
2017-Dec-14 13:00N 55°24' E 004°30'3 3.4 260 / 19 6.0 0.9
2017-Dec-14 12:00N 55°24' E 004°24'3 3.4 250 / 21 5.9-0.2
2017-Dec-14 11:00N 55°24' E 004°30'3 3.4 250 / 23 6.2 0.2
2017-Dec-14 10:00N 55°24' E 004°36'3 3.4 270 / 21982.5 6.0 1.1 7.9
2017-Dec-14 09:00N 55°24' E 004°30'3 3.4 260 / 21982.1 5.8 0.1 7.9
2017-Dec-14 08:00N 55°24' E 004°24'3 3.4 260 / 21981.5 6.1 1.1 7.9
2017-Dec-14 07:00N 55°24' E 004°30'3 3.4 270 / 21981.2 5.6 0.5 7.9
2017-Dec-14 06:00N 55°24' E 004°36'0 0.0 260 / 21980.7 5.7 0.6 7.9
2017-Dec-14 05:00N 55°24' E 004°36'0 0.0 280 / 19980.3 6.1 0.3 8.1
2017-Dec-14 04:00N 55°24' E 004°36'9 9.1 270 / 23980.3 5.0 0.9 8.0
2017-Dec-14 03:00N 55°30' E 004°24'3 3.4 290 / 19980.1 4.8-1.2 7.8
2017-Dec-14 02:00N 55°30' E 004°18'7 6.9 290 / 12979.6 5.9 0.7 7.9
2017-Dec-14 01:00N 55°36' E 004°12'7 6.9 290 / 17979.1 5.5 1.2 8.0
2017-Dec-14 00:00N 55°42' E 004°06'7 6.8 310 / 19978.7 5.6 0.5 8.1
2017-Dec-13 23:00N 55°42' E 003°54'6 6.0 310 / 16978.3 6.1 2.0 8.1
2017-Dec-13 22:00N 55°48' E 003°54'7 6.9 300 / 21977.9 5.9 1.7 8.1
2017-Dec-13 21:00N 55°54' E 003°48'7 6.9 280 / 17978.1 6.3 2.4 8.1
2017-Dec-13 20:00N 56°00' E 003°42'3 3.4 260 / 21978.4 5.6 3.5 8.1
2017-Dec-13 19:00N 56°00' E 003°36'1413.7 270 / 19978.7 5.6 2.7 8.1
2017-Dec-13 18:00N 56°12' E 003°24'9 9.0 250 / 17979.2 5.6 3.3 8.1
2017-Dec-13 17:00N 56°18' E 003°12'1212.5 200 / 25978.8 6.8 4.6 8.0
2017-Dec-13 16:00N 56°30' E 003°06'3 3.3 210 / 25980.0 7.0 4.1 7.9
2017-Dec-13 15:00N 56°30' E 003°00'14 6.8 190 / 23981.6 7.6 4.9 8.0
2017-Dec-13 13:00N 56°42' E 003°12'6 6.0 230 / 21984.4 7.6 4.0 8.1
2017-Dec-13 12:00N 56°36' E 003°12'3 3.3 230 / 21985.9 7.6 3.6 8.0
2017-Dec-13 11:00N 56°36' E 003°18'7 6.9 220 / 17987.1 7.5 3.8 7.8
2017-Dec-13 10:00N 56°30' E 003°24'0 0.0 230 / 19988.2 7.6 3.4 7.8
2017-Dec-13 09:00N 56°30' E 003°24'10 9.9 230 / 19988.8 7.7 1.9 7.9
2017-Dec-13 08:00N 56°30' E 003°42'9 8.9 250 / 23989.1 7.4 2.7 7.8
2017-Dec-13 07:00N 56°36' E 003°54'10 9.9 240 / 27988.9 7.6 2.8 7.9
2017-Dec-13 06:00N 56°36' E 004°12'3 3.3 210 / 25989.7 7.1 4.7 7.8
2017-Dec-13 05:00N 56°36' E 004°18'3 3.3 200 / 35991.0 6.6 4.0 7.8
2017-Dec-13 04:00N 56°36' E 004°24'7 6.8 190 / 33992.8 5.9 3.5 7.8
2017-Dec-13 03:00N 56°42' E 004°30'7 6.6 200 / 29994.7 5.5 3.3 7.8
2017-Dec-13 02:00N 56°42' E 004°42'1211.6 200 / 31995.8 6.8 2.1 7.8
2017-Dec-13 01:00N 56°48' E 005°00'7 6.6 230 / 21996.6 6.9 2.7 7.7
2017-Dec-13 00:00N 56°48' E 005°12'1211.5 210 / 27997.3 6.7 1.5 7.9
2017-Dec-12 23:00N 56°54' E 005°30'7 6.6 230 / 27998.0 6.7 0.6 7.7
2017-Dec-12 22:00N 56°54' E 005°42'7 6.6 240 / 27998.1 6.9-0.2 7.7
2017-Dec-12 21:00N 56°54' E 005°54'1211.5 240 / 29998.4 6.9-0.3 7.8
2017-Dec-12 20:00N 57°00' E 006°12'1111.5 240 / 29998.1 6.8 0.6 8.0
2017-Dec-12 19:00N 57°06' E 006°30'10 9.8 240 / 31998.2 6.0 1.3 7.8
2017-Dec-12 18:00N 57°06' E 006°48'1111.5 230 / 14998.6 6.0 2.4 8.3
2017-Dec-12 17:00N 57°12' E 007°06'10 9.8 230 / 23998.6 5.7 1.5 8.3
2017-Dec-12 16:00N 57°12' E 007°24'1111.4 250 / 23998.8 6.4-0.1 8.0
2017-Dec-12 15:00N 57°18' E 007°42'1414.3 280 / 21997.9 6.4-2.4 8.1
2017-Dec-12 14:00N 57°24' E 008°06'10 9.7 240 / 16998.0 4.5-1.4 7.9
2017-Dec-12 13:00N 57°24' E 008°24'1414.2 280 / 14997.6 3.2-4.1 8.0
2017-Dec-12 12:00N 57°30' E 008°48'1111.4 330 / 14997.1 2.6-4.5 8.9
2017-Dec-12 11:00N 57°36' E 009°06'1414.2 350 / 16996.5 2.0-2.6 8.3
2017-Dec-12 10:00N 57°42' E 009°30'1312.8 360 / 21995.6 2.0-3.6 8.1
2017-Dec-12 09:00N 57°42' E 009°54'1414.1 360 / 23994.1 2.5-1.6 8.0
2017-Dec-12 08:00N 57°48' E 010°18'1312.8 010 / 27993.0 2.0-2.1 7.9
2017-Dec-12 07:00N 57°48' E 010°42'1 1.8 010 / 27991.9 1.8-1.5 7.2
2017-Dec-12 06:38N 57°48' E 010°41'311.8
2017-Dec-12 06:23N 57°46' E 010°46'1026.0
2017-Dec-12 06:00N 57°36' E 010°48'7 6.8 010 / 25991.0 1.9-1.6 7.1
2017-Dec-12 05:00N 57°30' E 010°42'1212.0 020 / 29990.0 2.5-0.9 6.6
2017-Dec-12 04:00N 57°18' E 010°42'1212.4 020 / 31988.7 2.4-0.5 5.9
2017-Dec-12 03:00N 57°06' E 010°48'18 9.1 030 / 31987.5 2.2 0.4 5.3
2017-Dec-12 01:00N 56°48' E 010°54'1413.7 050 / 31986.6 2.6 0.5 6.6
2017-Dec-12 00:00N 56°36' E 011°06'1212.0 050 / 25985.8 2.7 0.7 6.4
2017-Dec-11 23:00N 56°24' E 011°06'1212.0 040 / 23986.1 2.6 1.4 6.2
2017-Dec-11 22:00N 56°12' E 011°06'1212.5 030 / 17986.9 2.5 0.6 5.7
2017-Dec-11 21:00N 56°00' E 011°00'2512.5 040 / 19986.6 1.9 0.6 6.2
2017-Dec-11 19:00N 55°36' E 010°48'1413.8 040 / 17986.9 0.9-0.1 6.0
2017-Dec-11 18:00N 55°24' E 011°00'1212.5 050 / 19986.0 0.7 0.1 5.7
2017-Dec-11 17:00N 55°12' E 011°06'7 9.3 040 / 17986.1 0.9-0.0 5.9
2017-Dec-11 16:14N 55°05' E 011°03'622.0
2017-Dec-11 16:00N 55°00' E 011°00'249.6 040 / 23985.4 2.1-0.3 5.4
2017-Dec-11 15:57N 55°01' E 011°03'613.2
2017-Dec-11 15:31N 54°56' E 010°57'714.0
2017-Dec-11 15:01N 54°50' E 010°53'2114.5
2017-Dec-11 15:00N 54°48' E 010°54'511.1 040 / 17985.5 2.4-0.1 5.9
2017-Dec-11 14:30N 54°43' E 010°53'612.8
2017-Dec-11 14:01N 54°38' E 010°46'3176.8
2017-Dec-11 14:00N 54°36' E 010°42'4 7.3 040 / 19985.9 2.6-0.6 5.9
2017-Dec-11 13:26N 54°34' E 010°36'818.2
2017-Dec-11 13:00N 54°30' E 010°24'1413.9 040 / 17986.5 2.7-0.4 5.8
2017-Dec-11 12:00N 54°18' E 010°12'4 3.5 030 / 10986.3 2.3-0.3 6.2
2017-Dec-11 11:00N 54°18' E 010°06'0 0.0 040 / 10987.2 2.7-0.3 6.5
2017-Dec-11 10:00N 54°18' E 010°06'0 0.0 060 / 6987.4 2.5-1.0 6.2
2017-Dec-11 09:00N 54°18' E 010°06'0 0.0 040 / 10986.0 2.9 0.6 6.3
2017-Dec-11 08:00N 54°18' E 010°06'0 0.0 030 / 14985.0 2.5-1.0 6.1
2017-Dec-11 07:00N 54°18' E 010°06'0 0.0 030 / 8984.6 2.0-2.3 6.2
2017-Dec-11 06:00N 54°18' E 010°06'0 0.0 030 / 6985.6 1.9-2.2 6.3
2017-Dec-11 05:00N 54°18' E 010°06'0 0.0 030 / 14983.1 1.4-2.3 6.4
2017-Dec-11 04:00N 54°18' E 010°06'0 0.0 030 / 8982.3 1.4-2.1 7.0
2017-Dec-11 03:00N 54°18' E 010°06'0 0.0 040 / 8981.0 0.9-1.4 7.1
2017-Dec-11 02:00N 54°18' E 010°06'0 0.0 060 / 10979.8 1.2-1.1 7.1
2017-Dec-11 01:00N 54°18' E 010°06'0 0.0 050 / 12979.1 1.8-0.7 7.7
2017-Dec-11 00:00N 54°18' E 010°06'0 0.0 060 / 10979.0 -0.3-2.6 7.7
2017-Dec-10 23:00N 54°18' E 010°06'0 0.0 080 / 8979.2 0.1-2.1 7.6
2017-Dec-10 22:00N 54°18' E 010°06'0 0.0 090 / 8979.4 -0.4-2.8 7.7
2017-Dec-10 21:00N 54°18' E 010°06'0 0.0 090 / 6979.7 -0.4-2.7 7.7
2017-Dec-10 20:00N 54°18' E 010°06'0 0.0 120 / 12980.3 -0.2-3.4 7.7
2017-Dec-10 19:00N 54°18' E 010°06'0 0.0 120 / 8981.1 -0.3-2.8 7.7
2017-Dec-10 18:00N 54°18' E 010°06'0 0.0 130 / 8982.0 0.1-2.6 7.7
2017-Dec-10 17:00N 54°18' E 010°06'0 0.0 130 / 10982.8 -0.2-1.4 7.7
2017-Dec-10 16:00N 54°18' E 010°06'0 0.0 130 / 10983.7 0.7-2.0 7.7
2017-Dec-10 15:00N 54°18' E 010°06'0 0.0 130 / 8984.5 0.9-2.3 7.6
2017-Dec-10 14:00N 54°18' E 010°06'0 0.0 140 / 6985.6 0.9-2.9 7.5
2017-Dec-10 13:00N 54°18' E 010°06'0 0.0 160 / 6987.1 0.9-2.6 7.6
2017-Dec-10 12:00N 54°18' E 010°06'0 0.0 180 / 8988.4 1.1-2.5 7.5
2017-Dec-10 11:00N 54°18' E 010°06'0 0.0 200 / 10989.7 1.3-2.3 7.5
2017-Dec-10 10:00N 54°18' E 010°06'7 6.9 210 / 10991.5 1.1-1.9 7.3
2017-Dec-10 09:00N 54°24' E 010°12'7 6.9 200 / 17992.3 1.2-1.9 6.5
2017-Dec-10 08:00N 54°30' E 010°18'7 6.9 200 / 25992.5 1.6-2.4 6.6
2017-Dec-10 07:00N 54°36' E 010°24'0 0.0 210 / 29993.4 2.1-1.0 6.5
2017-Dec-10 06:00N 54°36' E 010°24'0 0.0 220 / 29994.1 1.3-0.4 6.6
2017-Dec-10 05:00N 54°36' E 010°24'3 3.5 210 / 29994.8 1.4 0.1 6.6
2017-Dec-10 04:00N 54°36' E 010°18'0 0.0 210 / 27995.0 1.7-0.5 6.7
2017-Dec-10 03:00N 54°36' E 010°18'3 3.5 210 / 27996.3 1.8 0.4 6.7
2017-Dec-10 02:00N 54°36' E 010°24'3 3.5 220 / 27997.2 1.9 0.5 6.6
2017-Dec-10 01:00N 54°36' E 010°18'0 0.0 220 / 29997.3 1.7 0.5 6.7
2017-Dec-10 00:00N 54°36' E 010°18'0 0.0 220 / 27998.5 1.6 0.2 6.7
2017-Dec-09 23:00N 54°36' E 010°18'0 0.0 210 / 27999.1 1.8-0.0 6.7
2017-Dec-09 22:00N 54°36' E 010°18'0 0.0 220 / 21999.6 2.2 1.1 6.7
2017-Dec-09 21:00N 54°36' E 010°18'3 3.5 250 / 191000.3 1.1 0.2 6.7
2017-Dec-09 20:00N 54°36' E 010°24'3 3.5 220 / 231000.6 1.7 0.6 6.7
2017-Dec-09 19:00N 54°36' E 010°30'1010.4 220 / 211000.7 3.0-0.1 6.7
2017-Dec-09 18:00N 54°36' E 010°48'1 2.5 240 / 251000.1 3.9 0.8 6.5
2017-Dec-09 17:29N 54°36' E 010°50'510.1
2017-Dec-09 17:00N 54°36' E 010°58'4309.2
2017-Dec-09 17:00N 54°36' E 011°06'1 1.1 250 / 251000.1 4.3 0.7 6.5
2017-Dec-09 16:31N 54°36' E 011°07'5 9.4
2017-Dec-09 16:01N 54°35' E 011°15'2123.0
2017-Dec-09 16:00N 54°36' E 011°18'4 8.2 240 / 271000.2 4.0 0.5 6.4
2017-Dec-09 15:30N 54°33' E 011°22'917.4
2017-Dec-09 15:00N 54°24' E 011°24'42601.0 270 / 231001.0 4.1-0.5 6.4
2017-Dec-09 14:59N 54°28' E 011°24'4 8.3
2017-Dec-09 14:30N 54°24' E 011°25'3 6.7
2017-Dec-09 14:00N 54°21' E 011°29'3204.1
2017-Dec-09 14:00N 54°18' E 011°30'4 4.5 260 / 271000.8 4.9 0.2 6.6
2017-Dec-09 13:01N 54°18' E 011°37'0 4.2
2017-Dec-09 13:00N 54°18' E 011°38'3267.4
2017-Dec-09 13:00N 54°18' E 011°42'2 3.2 260 / 271000.3 4.8 0.7 6.5
2017-Dec-09 12:30N 54°19' E 011°41'2 4.3
2017-Dec-09 12:00N 54°21' E 011°44'3175.4
2017-Dec-09 12:00N 54°18' E 011°42'3 6.4 260 / 271000.2 4.4 0.8 6.6
2017-Dec-09 11:30N 54°21' E 011°44'0 0.3
2017-Dec-09 11:00N 54°21' E 011°44'1 1.2
2017-Dec-09 10:30N 54°20' E 011°43'2 4.7
2017-Dec-09 10:00N 54°18' E 011°42'311.6 270 / 251000.2 4.2 0.9 6.5
2017-Dec-09 09:46N 54°20' E 011°43'3 9.4
2017-Dec-09 09:30N 54°18' E 011°42'3 6.4
2017-Dec-09 09:00N 54°15' E 011°40'3187.0
2017-Dec-09 09:00N 54°12' E 011°42'3 5.3 250 / 27999.5 3.3 1.1 6.6
2017-Dec-09 08:30N 54°14' E 011°44'3 6.7
2017-Dec-09 08:00N 54°12' E 011°48'2 8.4 250 / 21998.9 3.7 1.9 6.6
2017-Dec-09 07:46N 54°14' E 011°48'2 7.0
2017-Dec-09 07:29N 54°14' E 011°44'2 4.8
2017-Dec-09 07:00N 54°14' E 011°40'2115.2
2017-Dec-09 07:00N 54°12' E 011°42'2 3.9 240 / 27998.6 3.4 1.2 6.5
2017-Dec-09 06:30N 54°14' E 011°44'2 4.0
2017-Dec-09 06:00N 54°14' E 011°47'2250.8
2017-Dec-09 06:00N 54°12' E 011°48'2 3.8 230 / 27998.9 2.1 0.8 6.4
2017-Dec-09 05:30N 54°14' E 011°47'1 1.3
2017-Dec-09 05:00N 54°13' E 011°47'1112.4
2017-Dec-09 05:00N 54°12' E 011°48'1 3.0 230 / 27998.9 2.7 0.5 6.5
2017-Dec-09 04:30N 54°13' E 011°47'0 0.3
2017-Dec-09 04:00N 54°13' E 011°47'193.9
2017-Dec-09 04:00N 54°12' E 011°48'2 3.2 230 / 27999.1 2.6-0.2 6.5
2017-Dec-09 03:30N 54°13' E 011°47'0 0.5
2017-Dec-09 03:00N 54°14' E 011°47'2118.1
2017-Dec-09 03:00N 54°12' E 011°48'2 4.2 220 / 27999.5 2.3-0.1 6.5
2017-Dec-09 02:30N 54°14' E 011°47'0 0.4
2017-Dec-09 02:00N 54°14' E 011°47'2122.3
2017-Dec-09 02:00N 54°12' E 011°48'2 3.9 220 / 291000.0 2.0-0.7 6.5
2017-Dec-09 01:29N 54°14' E 011°47'0 0.1
2017-Dec-09 01:00N 54°14' E 011°47'2262.7
2017-Dec-09 01:00N 54°12' E 011°48'2 3.7 220 / 271000.2 2.5 0.1 6.6
2017-Dec-09 00:30N 54°14' E 011°47'0 0.1
2017-Dec-09 00:01N 54°14' E 011°47'2109.8
2017-Dec-09 00:00N 54°12' E 011°48'2 3.6 230 / 311000.3 2.5-0.6 6.6
2017-Dec-08 23:31N 54°14' E 011°47'0 0.3
2017-Dec-08 23:00N 54°14' E 011°47'2130.8
2017-Dec-08 23:00N 54°12' E 011°48'2 3.7 240 / 311000.1 3.0-0.5 6.6
2017-Dec-08 22:30N 54°14' E 011°47'0 0.7
2017-Dec-08 22:00N 54°14' E 011°48'2142.8
2017-Dec-08 22:00N 54°12' E 011°48'3 6.4 240 / 331000.3 3.2 0.1 6.5
2017-Dec-08 21:30N 54°15' E 011°48'4 8.6
2017-Dec-08 21:00N 54°18' E 011°54'263.3 250 / 35999.9 3.5-0.4 6.6
2017-Dec-08 20:57N 54°17' E 011°50'3 5.6
2017-Dec-08 20:30N 54°19' E 011°53'5 9.8
2017-Dec-08 20:00N 54°23' E 011°57'2205.6
2017-Dec-08 20:00N 54°24' E 012°00'9 9.2 240 / 33999.5 3.7 0.5 6.7
2017-Dec-08 19:00N 54°30' E 012°12'7 6.9 250 / 31998.6 4.3 0.7 6.6
2017-Dec-08 18:00N 54°36' E 012°18'1212.0 240 / 25998.5 4.6 0.7 6.4
2017-Dec-08 17:00N 54°42' E 012°36'1212.0 240 / 25997.8 4.6 1.6 6.8
2017-Dec-08 16:00N 54°48' E 012°54'1010.4 240 / 25997.6 4.6 1.5 6.9
2017-Dec-08 15:00N 54°48' E 013°12'1010.4 240 / 25997.1 4.7 1.4 7.3
2017-Dec-08 14:00N 54°48' E 013°30'7 6.9 240 / 27997.0 5.0 1.8 7.2
2017-Dec-08 13:00N 54°48' E 013°42'3 3.5 240 / 31996.6 4.9 0.8 7.3
2017-Dec-08 12:00N 54°48' E 013°48'0 0.0 250 / 27996.8 5.1 1.4 7.1
2017-Dec-08 11:00N 54°48' E 013°48'0 0.0 250 / 29997.1 5.0 1.0 7.1
2017-Dec-08 10:00N 54°48' E 013°48'6 6.0 230 / 23997.3 4.9 1.8 7.1
2017-Dec-08 09:00N 54°42' E 013°48'6 6.0 230 / 23996.9 5.0 1.3 7.2
2017-Dec-08 08:00N 54°48' E 013°48'1212.0 230 / 29996.7 5.9 2.8 7.1
2017-Dec-08 07:00N 54°42' E 014°06'1212.0 240 / 27996.7 6.3 3.1 7.1
2017-Dec-08 06:00N 54°36' E 014°24'1212.0 230 / 25996.6 6.7 3.6 7.3
2017-Dec-08 05:00N 54°42' E 014°42'6 6.4 230 / 25996.1 6.6 4.3 6.8
2017-Dec-08 04:04N 54°44' E 014°52'684.1
2017-Dec-08 04:00N 54°48' E 015°00'7 6.9 230 / 27996.0 6.8 4.6 7.5
2017-Dec-08 03:00N 54°48' E 015°12'9 9.2 230 / 27996.2 6.7 5.0 7.1
2017-Dec-08 02:00N 54°54' E 015°24'7 6.9 230 / 29996.1 6.2 4.7 7.1
2017-Dec-08 01:00N 54°54' E 015°36'9 9.1 220 / 27996.7 5.9 4.7 7.1
2017-Dec-08 00:00N 55°00' E 015°48'7 6.9 220 / 31997.1 5.6 4.4 7.1
2017-Dec-07 23:00N 55°00' E 016°00'9 9.1 220 / 33997.4 5.4 4.2 7.3
2017-Dec-07 22:00N 55°06' E 016°12'7 6.9 210 / 31998.4 5.8 4.4 7.2
2017-Dec-07 21:00N 55°06' E 016°24'9 9.1 210 / 33999.0 5.6 4.3 7.2
2017-Dec-07 20:00N 55°12' E 016°36'7 6.8 210 / 331000.1 5.2 4.1 7.2
2017-Dec-07 19:00N 55°12' E 016°48'7 6.9 210 / 331000.8 5.3 3.4 6.9
2017-Dec-07 18:00N 55°18' E 016°54'7 6.8 210 / 351002.4 6.0 2.5 6.5
2017-Dec-07 17:00N 55°18' E 017°06'9 9.1 210 / 331003.7 6.0 2.4 6.4
2017-Dec-07 16:00N 55°12' E 017°18'7 6.8 210 / 331004.5 6.4 2.2 6.4
2017-Dec-07 15:00N 55°12' E 017°30'7 6.8 220 / 331005.8 6.4 2.0 6.3
2017-Dec-07 14:00N 55°12' E 017°42'7 6.8 220 / 311006.5 6.6 1.7 6.4
2017-Dec-07 13:00N 55°12' E 017°54'7 6.8 230 / 331007.1 6.7 2.0 6.5
2017-Dec-07 12:00N 55°12' E 018°06'9 4.6 240 / 331007.9 7.0 2.9 6.5
2017-Dec-07 10:00N 55°06' E 018°18'3 3.4 240 / 311009.5 7.4 4.2 6.7
2017-Dec-07 09:00N 55°06' E 018°12'   240 / 291009.4 7.5 4.5 6.7
Track history (hours):
 
Tides and Currents Weather Stations Pressure Air Temp Water Temp Dewpoint Dewpoint Depression Visibility Wind Speed Wind Dir Waves Ship Positions

Oceanographic research ship Walther Herwig III (Germany)

Detailed information on ship capabilities available from University of Delaware's Ocean Information Center.

Last reported at 2017-Dec-17 09:00 UTC. Time now 2017-Dec-17 10:05 UTC.
Position N 54°06' E 007°48'.

Length 63.2 m; beam 14.8 m; draft 5.5 m.

Type: Fishing. MMSI: 211215500.

Wind from 020 at 8 knots

Barometer 1019.6 mb
Air temperature 4.9 ° C
Dewpoint 0.5 ° C
Water temperature 6.9 ° C

Date/timePositionNaut miles runAvg speedWind from/ knotsBaromVisibWave heightAir tempDewpointWater temp
2017-Dec-17 09:00N 54°06' E 007°48'0 0.0 020 / 81019.6 4.9 0.5 6.9
2017-Dec-17 08:00N 54°06' E 007°48'0 0.0 360 / 101018.9 5.2-1.8 6.9
2017-Dec-17 07:00N 54°06' E 007°48'4 3.5 360 / 121018.3 4.9-0.6 6.4
2017-Dec-17 06:00N 54°06' E 007°54'4 3.5 350 / 121017.7 5.0-1.3 6.5
2017-Dec-17 05:00N 54°06' E 008°00'7 7.0 360 / 121017.2 4.8-0.9 6.6
2017-Dec-17 04:00N 54°12' E 007°54'4 3.5 360 / 121016.2 4.4-1.5 6.7
2017-Dec-17 03:00N 54°12' E 008°00'4 3.5 020 / 101015.4 4.0-1.4 6.7
2017-Dec-17 02:00N 54°12' E 007°54'4 3.5 040 / 121014.3 4.9-0.3 7.2
2017-Dec-17 01:00N 54°12' E 008°00'0 0.0 330 / 171013.2 5.9-0.0 7.2
2017-Dec-17 00:00N 54°12' E 008°00'4 3.5 330 / 191012.7 5.8 0.2 7.2
2017-Dec-16 23:00N 54°12' E 007°54'0 0.0 330 / 171012.0 5.7 0.5 7.5
2017-Dec-16 22:00N 54°12' E 007°54'4 3.5 310 / 81011.6 4.8-0.1 7.5
2017-Dec-16 21:00N 54°12' E 008°00'0 0.0 300 / 171010.9 4.7 1.2 7.0
2017-Dec-16 20:00N 54°12' E 008°00'7 6.9 360 / 161010.4 4.4 0.9 6.7
2017-Dec-16 19:00N 54°18' E 007°54'1110.5 320 / 161010.0 6.4 1.3 6.6
2017-Dec-16 18:00N 54°18' E 007°36'4 3.5 320 / 171009.5 5.7-1.0 7.9
2017-Dec-16 17:00N 54°18' E 007°30'7 6.9 330 / 231008.8 5.6 1.8 8.0
2017-Dec-16 16:00N 54°24' E 007°36'3 3.5 340 / 191007.7 6.0 0.9 7.5
2017-Dec-16 15:00N 54°24' E 007°30'3 3.5 330 / 191007.3 6.2 0.6 7.5
2017-Dec-16 14:00N 54°24' E 007°24'1212.1 330 / 161006.9 6.1 0.7 7.9
2017-Dec-16 13:00N 54°30' E 007°06'9 9.2 350 / 191006.5 5.4-0.1 7.9
2017-Dec-16 12:00N 54°36' E 006°54'1615.9 330 / 141006.2 5.8 1.2 8.5
2017-Dec-16 11:00N 54°48' E 006°36'1212.0 310 / 211005.9 6.4 1.1 8.9
2017-Dec-16 10:00N 54°54' E 006°18'6 6.0 330 / 191005.6 7.2 1.2 9.1
2017-Dec-16 09:00N 55°00' E 006°18'3 3.4 350 / 251004.2 5.4 0.4 9.1
2017-Dec-16 08:00N 55°00' E 006°24'3 3.4 310 / 231003.9 6.3-0.4 9.1
2017-Dec-16 07:00N 55°00' E 006°18'6 6.0 320 / 231003.3 6.1-0.6 9.1
2017-Dec-16 06:00N 54°54' E 006°18'0 0.0 310 / 231002.6 6.1 0.5 9.1
2017-Dec-16 05:00N 54°54' E 006°18'0 0.0 320 / 121002.5 6.7 1.0 9.1
2017-Dec-16 04:00N 54°54' E 006°18'0 0.0 330 / 211002.0 6.1 0.4 9.1
2017-Dec-16 03:00N 54°54' E 006°18'0 0.0 310 / 211001.7 6.4 0.5 9.1
2017-Dec-16 02:00N 54°54' E 006°18'0 0.0 310 / 211001.4 6.4 0.8 9.1
2017-Dec-16 01:00N 54°54' E 006°18'0 0.0 340 / 231000.9 6.1 0.7 9.1
2017-Dec-16 00:00N 54°54' E 006°18'0 0.0 310 / 231000.7 6.6-0.5 9.1
2017-Dec-15 23:00N 54°54' E 006°18'0 0.0 330 / 211000.4 7.2 2.2 9.2
2017-Dec-15 22:00N 54°54' E 006°18'0 0.0 340 / 23999.8 6.8 1.9 9.2
2017-Dec-15 21:00N 54°54' E 006°18'3 3.5 360 / 17999.3 7.0 1.4 9.2
2017-Dec-15 20:00N 54°54' E 006°24'0 0.0 350 / 19998.6 7.5 0.7 9.1
2017-Dec-15 19:00N 54°54' E 006°24'3 3.5 340 / 10998.1 6.8 2.2 9.1
2017-Dec-15 18:00N 54°54' E 006°18'0 0.0 330 / 12997.5 6.8 2.3 9.2
2017-Dec-15 17:00N 54°54' E 006°18'0 0.0 320 / 16997.1 6.7 1.5 9.2
2017-Dec-15 16:00N 54°54' E 006°18'7 6.9 330 / 12996.4 6.4 1.7 9.2
2017-Dec-15 15:00N 55°00' E 006°24'7 6.9 320 / 17995.6 6.2 2.2 9.1
2017-Dec-15 14:00N 55°06' E 006°30'251.4 290 / 14994.7 6.4 1.1 9.1
2017-Dec-15 13:57N 55°04' E 006°29'812.3
2017-Dec-15 13:19N 55°11' E 006°36'824.3
2017-Dec-15 13:00N 55°18' E 006°42'374.9 330 / 10994.2 6.6 2.2 8.7
2017-Dec-15 12:57N 55°15' E 006°40'512.2
2017-Dec-15 12:30N 55°19' E 006°45'612.4
2017-Dec-15 12:00N 55°22' E 006°55'3242.4
2017-Dec-15 12:00N 55°24' E 007°00'3 5.6 330 / 17993.4 5.7 2.1 8.6
2017-Dec-15 11:31N 55°25' E 007°04'611.1
2017-Dec-15 11:01N 55°29' E 007°12'6 9.0
2017-Dec-15 10:21N 55°34' E 007°08'1 3.6
2017-Dec-15 09:59N 55°35' E 007°09'2 1.6
2017-Dec-15 09:00N 55°36' E 007°06'2 7.7 270 / 8991.2 6.3 2.7 8.4
2017-Dec-15 08:46N 55°35' E 007°09'0 0.9
2017-Dec-15 08:20N 55°36' E 007°09'2 4.5
2017-Dec-15 08:00N 55°36' E 007°06'2175.8 250 / 6990.5 6.1 2.0 8.3
2017-Dec-15 07:59N 55°35' E 007°09'2 1.9
2017-Dec-15 07:00N 55°36' E 007°06'6 5.9 200 / 8989.7 5.9 2.1 8.3
2017-Dec-15 06:00N 55°31' E 007°11'197.9
2017-Dec-15 06:00N 55°30' E 007°12'1 2.2 160 / 4989.2 5.2 2.0 8.3
2017-Dec-15 05:27N 55°31' E 007°10'1 2.7
2017-Dec-15 05:00N 55°30' E 007°12'2 3.6 330 / 4988.6 5.1 1.6 8.3
2017-Dec-15 04:18N 55°30' E 007°08'1 3.7
2017-Dec-15 04:01N 55°30' E 007°06'0 6.6
2017-Dec-15 04:00N 55°30' E 007°06'7 6.8 010 / 8987.7 5.1 2.1 8.7
2017-Dec-15 03:00N 55°30' E 006°54'9 9.1 350 / 8987.0 5.3 1.7 8.7
2017-Dec-15 02:00N 55°24' E 006°42'7 6.8
2017-Dec-15 01:00N 55°24' E 006°30'3 3.4 230 / 12985.8 6.6 1.8 8.9
2017-Dec-15 00:00N 55°24' E 006°24'7 6.8 280 / 14985.4 6.4 2.6 9.3
2017-Dec-14 23:00N 55°24' E 006°12'9 9.1 240 / 12984.8 7.0 1.3 9.0
2017-Dec-14 22:00N 55°18' E 006°00'7 6.8 230 / 12984.6 6.4 2.2 9.0
2017-Dec-14 21:00N 55°18' E 005°48'7 6.8 220 / 14984.2 5.8 1.3 8.7
2017-Dec-14 20:00N 55°18' E 005°36'9 9.1 260 / 8984.1 6.0 2.8 8.4
2017-Dec-14 19:00N 55°12' E 005°24'1211.9 270 / 10983.8 5.6 1.6 8.3
2017-Dec-14 18:00N 55°18' E 005°06'1413.7 260 / 21983.3 5.7 1.6 8.4
2017-Dec-14 17:00N 55°18' E 004°42'9 9.1 240 / 19982.9 6.2 1.7 8.0
2017-Dec-14 16:00N 55°24' E 004°30'3 3.4 230 / 14982.9 6.2 0.6 7.9
2017-Dec-14 15:00N 55°24' E 004°24'3 3.4 230 / 19982.8 6.1 1.2 7.9
2017-Dec-14 14:00N 55°24' E 004°30'0 0.0 240 / 19982.6 6.1 0.6 7.9
2017-Dec-14 13:00N 55°24' E 004°30'3 3.4 260 / 19 6.0 0.9
2017-Dec-14 12:00N 55°24' E 004°24'3 3.4 250 / 21 5.9-0.2
2017-Dec-14 11:00N 55°24' E 004°30'3 3.4 250 / 23 6.2 0.2
2017-Dec-14 10:00N 55°24' E 004°36'3 3.4 270 / 21982.5 6.0 1.1 7.9
2017-Dec-14 09:00N 55°24' E 004°30'3 3.4 260 / 21982.1 5.8 0.1 7.9
2017-Dec-14 08:00N 55°24' E 004°24'3 3.4 260 / 21981.5 6.1 1.1 7.9
2017-Dec-14 07:00N 55°24' E 004°30'3 3.4 270 / 21981.2 5.6 0.5 7.9
2017-Dec-14 06:00N 55°24' E 004°36'0 0.0 260 / 21980.7 5.7 0.6 7.9
2017-Dec-14 05:00N 55°24' E 004°36'0 0.0 280 / 19980.3 6.1 0.3 8.1
2017-Dec-14 04:00N 55°24' E 004°36'9 9.1 270 / 23980.3 5.0 0.9 8.0
2017-Dec-14 03:00N 55°30' E 004°24'3 3.4 290 / 19980.1 4.8-1.2 7.8
2017-Dec-14 02:00N 55°30' E 004°18'7 6.9 290 / 12979.6 5.9 0.7 7.9
2017-Dec-14 01:00N 55°36' E 004°12'7 6.9 290 / 17979.1 5.5 1.2 8.0
2017-Dec-14 00:00N 55°42' E 004°06'7 6.8 310 / 19978.7 5.6 0.5 8.1
2017-Dec-13 23:00N 55°42' E 003°54'6 6.0 310 / 16978.3 6.1 2.0 8.1
2017-Dec-13 22:00N 55°48' E 003°54'7 6.9 300 / 21977.9 5.9 1.7 8.1
2017-Dec-13 21:00N 55°54' E 003°48'7 6.9 280 / 17978.1 6.3 2.4 8.1
2017-Dec-13 20:00N 56°00' E 003°42'3 3.4 260 / 21978.4 5.6 3.5 8.1
2017-Dec-13 19:00N 56°00' E 003°36'1413.7 270 / 19978.7 5.6 2.7 8.1
2017-Dec-13 18:00N 56°12' E 003°24'9 9.0 250 / 17979.2 5.6 3.3 8.1
2017-Dec-13 17:00N 56°18' E 003°12'1212.5 200 / 25978.8 6.8 4.6 8.0
2017-Dec-13 16:00N 56°30' E 003°06'3 3.3 210 / 25980.0 7.0 4.1 7.9
2017-Dec-13 15:00N 56°30' E 003°00'14 6.8 190 / 23981.6 7.6 4.9 8.0
2017-Dec-13 13:00N 56°42' E 003°12'6 6.0 230 / 21984.4 7.6 4.0 8.1
2017-Dec-13 12:00N 56°36' E 003°12'3 3.3 230 / 21985.9 7.6 3.6 8.0
2017-Dec-13 11:00N 56°36' E 003°18'7 6.9 220 / 17987.1 7.5 3.8 7.8
2017-Dec-13 10:00N 56°30' E 003°24'0 0.0 230 / 19988.2 7.6 3.4 7.8
2017-Dec-13 09:00N 56°30' E 003°24'10 9.9 230 / 19988.8 7.7 1.9 7.9
2017-Dec-13 08:00N 56°30' E 003°42'9 8.9 250 / 23989.1 7.4 2.7 7.8
2017-Dec-13 07:00N 56°36' E 003°54'10 9.9 240 / 27988.9 7.6 2.8 7.9
2017-Dec-13 06:00N 56°36' E 004°12'3 3.3 210 / 25989.7 7.1 4.7 7.8
2017-Dec-13 05:00N 56°36' E 004°18'3 3.3 200 / 35991.0 6.6 4.0 7.8
2017-Dec-13 04:00N 56°36' E 004°24'7 6.8 190 / 33992.8 5.9 3.5 7.8
2017-Dec-13 03:00N 56°42' E 004°30'7 6.6 200 / 29994.7 5.5 3.3 7.8
2017-Dec-13 02:00N 56°42' E 004°42'1211.6 200 / 31995.8 6.8 2.1 7.8
2017-Dec-13 01:00N 56°48' E 005°00'7 6.6 230 / 21996.6 6.9 2.7 7.7
2017-Dec-13 00:00N 56°48' E 005°12'1211.5 210 / 27997.3 6.7 1.5 7.9
2017-Dec-12 23:00N 56°54' E 005°30'7 6.6 230 / 27998.0 6.7 0.6 7.7
2017-Dec-12 22:00N 56°54' E 005°42'7 6.6 240 / 27998.1 6.9-0.2 7.7
2017-Dec-12 21:00N 56°54' E 005°54'1211.5 240 / 29998.4 6.9-0.3 7.8
2017-Dec-12 20:00N 57°00' E 006°12'1111.5 240 / 29998.1 6.8 0.6 8.0
2017-Dec-12 19:00N 57°06' E 006°30'10 9.8 240 / 31998.2 6.0 1.3 7.8
2017-Dec-12 18:00N 57°06' E 006°48'1111.5 230 / 14998.6 6.0 2.4 8.3
2017-Dec-12 17:00N 57°12' E 007°06'10 9.8 230 / 23998.6 5.7 1.5 8.3
2017-Dec-12 16:00N 57°12' E 007°24'1111.4 250 / 23998.8 6.4-0.1 8.0
2017-Dec-12 15:00N 57°18' E 007°42'1414.3 280 / 21997.9 6.4-2.4 8.1
2017-Dec-12 14:00N 57°24' E 008°06'10 9.7 240 / 16998.0 4.5-1.4 7.9
2017-Dec-12 13:00N 57°24' E 008°24'1414.2 280 / 14997.6 3.2-4.1 8.0
2017-Dec-12 12:00N 57°30' E 008°48'1111.4 330 / 14997.1 2.6-4.5 8.9
2017-Dec-12 11:00N 57°36' E 009°06'1414.2 350 / 16996.5 2.0-2.6 8.3
2017-Dec-12 10:00N 57°42' E 009°30'1312.8 360 / 21995.6 2.0-3.6 8.1
2017-Dec-12 09:00N 57°42' E 009°54'1414.1 360 / 23994.1 2.5-1.6 8.0
2017-Dec-12 08:00N 57°48' E 010°18'1312.8 010 / 27993.0 2.0-2.1 7.9
2017-Dec-12 07:00N 57°48' E 010°42'1 1.8 010 / 27991.9 1.8-1.5 7.2
2017-Dec-12 06:38N 57°48' E 010°41'311.8
2017-Dec-12 06:23N 57°46' E 010°46'1026.0
2017-Dec-12 06:00N 57°36' E 010°48'7 6.8 010 / 25991.0 1.9-1.6 7.1
2017-Dec-12 05:00N 57°30' E 010°42'1212.0 020 / 29990.0 2.5-0.9 6.6
2017-Dec-12 04:00N 57°18' E 010°42'1212.4 020 / 31988.7 2.4-0.5 5.9
2017-Dec-12 03:00N 57°06' E 010°48'18 9.1 030 / 31987.5 2.2 0.4 5.3
2017-Dec-12 01:00N 56°48' E 010°54'1413.7 050 / 31986.6 2.6 0.5 6.6
2017-Dec-12 00:00N 56°36' E 011°06'1212.0 050 / 25985.8 2.7 0.7 6.4
2017-Dec-11 23:00N 56°24' E 011°06'1212.0 040 / 23986.1 2.6 1.4 6.2
2017-Dec-11 22:00N 56°12' E 011°06'1212.5 030 / 17986.9 2.5 0.6 5.7
2017-Dec-11 21:00N 56°00' E 011°00'2512.5 040 / 19986.6 1.9 0.6 6.2
2017-Dec-11 19:00N 55°36' E 010°48'1413.8 040 / 17986.9 0.9-0.1 6.0
2017-Dec-11 18:00N 55°24' E 011°00'1212.5 050 / 19986.0 0.7 0.1 5.7
2017-Dec-11 17:00N 55°12' E 011°06'7 9.3 040 / 17986.1 0.9-0.0 5.9
2017-Dec-11 16:14N 55°05' E 011°03'622.0
2017-Dec-11 16:00N 55°00' E 011°00'249.6 040 / 23985.4 2.1-0.3 5.4
2017-Dec-11 15:57N 55°01' E 011°03'613.2
2017-Dec-11 15:31N 54°56' E 010°57'714.0
2017-Dec-11 15:01N 54°50' E 010°53'2114.5
2017-Dec-11 15:00N 54°48' E 010°54'511.1 040 / 17985.5 2.4-0.1 5.9
2017-Dec-11 14:30N 54°43' E 010°53'612.8
2017-Dec-11 14:01N 54°38' E 010°46'3176.8
2017-Dec-11 14:00N 54°36' E 010°42'4 7.3 040 / 19985.9 2.6-0.6 5.9
2017-Dec-11 13:26N 54°34' E 010°36'818.2
2017-Dec-11 13:00N 54°30' E 010°24'1413.9 040 / 17986.5 2.7-0.4 5.8
2017-Dec-11 12:00N 54°18' E 010°12'4 3.5 030 / 10986.3 2.3-0.3 6.2
2017-Dec-11 11:00N 54°18' E 010°06'0 0.0 040 / 10987.2 2.7-0.3 6.5
2017-Dec-11 10:00N 54°18' E 010°06'0 0.0 060 / 6987.4 2.5-1.0 6.2
2017-Dec-11 09:00N 54°18' E 010°06'0 0.0 040 / 10986.0 2.9 0.6 6.3
2017-Dec-11 08:00N 54°18' E 010°06'0 0.0 030 / 14985.0 2.5-1.0 6.1
2017-Dec-11 07:00N 54°18' E 010°06'0 0.0 030 / 8984.6 2.0-2.3 6.2
2017-Dec-11 06:00N 54°18' E 010°06'0 0.0 030 / 6985.6 1.9-2.2 6.3
2017-Dec-11 05:00N 54°18' E 010°06'0 0.0 030 / 14983.1 1.4-2.3 6.4
2017-Dec-11 04:00N 54°18' E 010°06'0 0.0 030 / 8982.3 1.4-2.1 7.0
2017-Dec-11 03:00N 54°18' E 010°06'0 0.0 040 / 8981.0 0.9-1.4 7.1
2017-Dec-11 02:00N 54°18' E 010°06'0 0.0 060 / 10979.8 1.2-1.1 7.1
2017-Dec-11 01:00N 54°18' E 010°06'0 0.0 050 / 12979.1 1.8-0.7 7.7
2017-Dec-11 00:00N 54°18' E 010°06'0 0.0 060 / 10979.0 -0.3-2.6 7.7
2017-Dec-10 23:00N 54°18' E 010°06'0 0.0 080 / 8979.2 0.1-2.1 7.6
2017-Dec-10 22:00N 54°18' E 010°06'0 0.0 090 / 8979.4 -0.4-2.8 7.7
2017-Dec-10 21:00N 54°18' E 010°06'0 0.0 090 / 6979.7 -0.4-2.7 7.7
2017-Dec-10 20:00N 54°18' E 010°06'0 0.0 120 / 12980.3 -0.2-3.4 7.7
2017-Dec-10 19:00N 54°18' E 010°06'0 0.0 120 / 8981.1 -0.3-2.8 7.7
2017-Dec-10 18:00N 54°18' E 010°06'0 0.0 130 / 8982.0 0.1-2.6 7.7
2017-Dec-10 17:00N 54°18' E 010°06'0 0.0 130 / 10982.8 -0.2-1.4 7.7
2017-Dec-10 16:00N 54°18' E 010°06'0 0.0 130 / 10983.7 0.7-2.0 7.7
2017-Dec-10 15:00N 54°18' E 010°06'0 0.0 130 / 8984.5 0.9-2.3 7.6
2017-Dec-10 14:00N 54°18' E 010°06'0 0.0 140 / 6985.6 0.9-2.9 7.5
2017-Dec-10 13:00N 54°18' E 010°06'0 0.0 160 / 6987.1 0.9-2.6 7.6
2017-Dec-10 12:00N 54°18' E 010°06'0 0.0 180 / 8988.4 1.1-2.5 7.5
2017-Dec-10 11:00N 54°18' E 010°06'0 0.0 200 / 10989.7 1.3-2.3 7.5
2017-Dec-10 10:00N 54°18' E 010°06'7 6.9 210 / 10991.5 1.1-1.9 7.3
2017-Dec-10 09:00N 54°24' E 010°12'7 6.9 200 / 17992.3 1.2-1.9 6.5
2017-Dec-10 08:00N 54°30' E 010°18'7 6.9 200 / 25992.5 1.6-2.4 6.6
2017-Dec-10 07:00N 54°36' E 010°24'0 0.0 210 / 29993.4 2.1-1.0 6.5
2017-Dec-10 06:00N 54°36' E 010°24'0 0.0 220 / 29994.1 1.3-0.4 6.6
2017-Dec-10 05:00N 54°36' E 010°24'3 3.5 210 / 29994.8 1.4 0.1 6.6
2017-Dec-10 04:00N 54°36' E 010°18'0 0.0 210 / 27995.0 1.7-0.5 6.7
2017-Dec-10 03:00N 54°36' E 010°18'3 3.5 210 / 27996.3 1.8 0.4 6.7
2017-Dec-10 02:00N 54°36' E 010°24'3 3.5 220 / 27997.2 1.9 0.5 6.6
2017-Dec-10 01:00N 54°36' E 010°18'0 0.0 220 / 29997.3 1.7 0.5 6.7
2017-Dec-10 00:00N 54°36' E 010°18'0 0.0 220 / 27998.5 1.6 0.2 6.7
2017-Dec-09 23:00N 54°36' E 010°18'0 0.0 210 / 27999.1 1.8-0.0 6.7
2017-Dec-09 22:00N 54°36' E 010°18'0 0.0 220 / 21999.6 2.2 1.1 6.7
2017-Dec-09 21:00N 54°36' E 010°18'3 3.5 250 / 191000.3 1.1 0.2 6.7
2017-Dec-09 20:00N 54°36' E 010°24'3 3.5 220 / 231000.6 1.7 0.6 6.7
2017-Dec-09 19:00N 54°36' E 010°30'1010.4 220 / 211000.7 3.0-0.1 6.7
2017-Dec-09 18:00N 54°36' E 010°48'1 2.5 240 / 251000.1 3.9 0.8 6.5
2017-Dec-09 17:29N 54°36' E 010°50'510.1
2017-Dec-09 17:00N 54°36' E 010°58'4309.2
2017-Dec-09 17:00N 54°36' E 011°06'1 1.1 250 / 251000.1 4.3 0.7 6.5
2017-Dec-09 16:31N 54°36' E 011°07'5 9.4
2017-Dec-09 16:01N 54°35' E 011°15'2123.0
2017-Dec-09 16:00N 54°36' E 011°18'4 8.2 240 / 271000.2 4.0 0.5 6.4
2017-Dec-09 15:30N 54°33' E 011°22'917.4
2017-Dec-09 15:00N 54°24' E 011°24'42601.0 270 / 231001.0 4.1-0.5 6.4
2017-Dec-09 14:59N 54°28' E 011°24'4 8.3
2017-Dec-09 14:30N 54°24' E 011°25'3 6.7
2017-Dec-09 14:00N 54°21' E 011°29'3204.1
2017-Dec-09 14:00N 54°18' E 011°30'4 4.5 260 / 271000.8 4.9 0.2 6.6
2017-Dec-09 13:01N 54°18' E 011°37'0 4.2
2017-Dec-09 13:00N 54°18' E 011°38'3267.4
2017-Dec-09 13:00N 54°18' E 011°42'2 3.2 260 / 271000.3 4.8 0.7 6.5
2017-Dec-09 12:30N 54°19' E 011°41'2 4.3
2017-Dec-09 12:00N 54°21' E 011°44'3175.4
2017-Dec-09 12:00N 54°18' E 011°42'3 6.4 260 / 271000.2 4.4 0.8 6.6
2017-Dec-09 11:30N 54°21' E 011°44'0 0.3
2017-Dec-09 11:00N 54°21' E 011°44'1 1.2
2017-Dec-09 10:30N 54°20' E 011°43'2 4.7
2017-Dec-09 10:00N 54°18' E 011°42'311.6 270 / 251000.2 4.2 0.9 6.5
2017-Dec-09 09:46N 54°20' E 011°43'3 9.4
2017-Dec-09 09:30N 54°18' E 011°42'3 6.4
2017-Dec-09 09:00N 54°15' E 011°40'3187.0
2017-Dec-09 09:00N 54°12' E 011°42'3 5.3 250 / 27999.5 3.3 1.1 6.6
2017-Dec-09 08:30N 54°14' E 011°44'3 6.7
2017-Dec-09 08:00N 54°12' E 011°48'2 8.4 250 / 21998.9 3.7 1.9 6.6
2017-Dec-09 07:46N 54°14' E 011°48'2 7.0
2017-Dec-09 07:29N 54°14' E 011°44'2 4.8
2017-Dec-09 07:00N 54°14' E 011°40'2115.2
2017-Dec-09 07:00N 54°12' E 011°42'2 3.9 240 / 27998.6 3.4 1.2 6.5
2017-Dec-09 06:30N 54°14' E 011°44'2 4.0
2017-Dec-09 06:00N 54°14' E 011°47'2250.8
2017-Dec-09 06:00N 54°12' E 011°48'2 3.8 230 / 27998.9 2.1 0.8 6.4
2017-Dec-09 05:30N 54°14' E 011°47'1 1.3
2017-Dec-09 05:00N 54°13' E 011°47'1112.4
2017-Dec-09 05:00N 54°12' E 011°48'1 3.0 230 / 27998.9 2.7 0.5 6.5
2017-Dec-09 04:30N 54°13' E 011°47'0 0.3
2017-Dec-09 04:00N 54°13' E 011°47'193.9
2017-Dec-09 04:00N 54°12' E 011°48'2 3.2 230 / 27999.1 2.6-0.2 6.5
2017-Dec-09 03:30N 54°13' E 011°47'0 0.5
2017-Dec-09 03:00N 54°14' E 011°47'2118.1
2017-Dec-09 03:00N 54°12' E 011°48'2 4.2 220 / 27999.5 2.3-0.1 6.5
2017-Dec-09 02:30N 54°14' E 011°47'0 0.4
2017-Dec-09 02:00N 54°14' E 011°47'2122.3
2017-Dec-09 02:00N 54°12' E 011°48'2 3.9 220 / 291000.0 2.0-0.7 6.5
2017-Dec-09 01:29N 54°14' E 011°47'0 0.1
2017-Dec-09 01:00N 54°14' E 011°47'2262.7
2017-Dec-09 01:00N 54°12' E 011°48'2 3.7 220 / 271000.2 2.5 0.1 6.6
2017-Dec-09 00:30N 54°14' E 011°47'0 0.1
2017-Dec-09 00:01N 54°14' E 011°47'2109.8
2017-Dec-09 00:00N 54°12' E 011°48'2 3.6 230 / 311000.3 2.5-0.6 6.6
2017-Dec-08 23:31N 54°14' E 011°47'0 0.3
2017-Dec-08 23:00N 54°14' E 011°47'2130.8
2017-Dec-08 23:00N 54°12' E 011°48'2 3.7 240 / 311000.1 3.0-0.5 6.6
2017-Dec-08 22:30N 54°14' E 011°47'0 0.7
2017-Dec-08 22:00N 54°14' E 011°48'2142.8
2017-Dec-08 22:00N 54°12' E 011°48'3 6.4 240 / 331000.3 3.2 0.1 6.5
2017-Dec-08 21:30N 54°15' E 011°48'4 8.6
2017-Dec-08 21:00N 54°18' E 011°54'263.3 250 / 35999.9 3.5-0.4 6.6
2017-Dec-08 20:57N 54°17' E 011°50'3 5.6
2017-Dec-08 20:30N 54°19' E 011°53'5 9.8
2017-Dec-08 20:00N 54°23' E 011°57'2205.6
2017-Dec-08 20:00N 54°24' E 012°00'9 9.2 240 / 33999.5 3.7 0.5 6.7
2017-Dec-08 19:00N 54°30' E 012°12'7 6.9 250 / 31998.6 4.3 0.7 6.6
2017-Dec-08 18:00N 54°36' E 012°18'1212.0 240 / 25998.5 4.6 0.7 6.4
2017-Dec-08 17:00N 54°42' E 012°36'1212.0 240 / 25997.8 4.6 1.6 6.8
2017-Dec-08 16:00N 54°48' E 012°54'1010.4 240 / 25997.6 4.6 1.5 6.9
2017-Dec-08 15:00N 54°48' E 013°12'1010.4 240 / 25997.1 4.7 1.4 7.3
2017-Dec-08 14:00N 54°48' E 013°30'7 6.9 240 / 27997.0 5.0 1.8 7.2
2017-Dec-08 13:00N 54°48' E 013°42'3 3.5 240 / 31996.6 4.9 0.8 7.3
2017-Dec-08 12:00N 54°48' E 013°48'0 0.0 250 / 27996.8 5.1 1.4 7.1
2017-Dec-08 11:00N 54°48' E 013°48'0 0.0 250 / 29997.1 5.0 1.0 7.1
2017-Dec-08 10:00N 54°48' E 013°48'6 6.0 230 / 23997.3 4.9 1.8 7.1
2017-Dec-08 09:00N 54°42' E 013°48'6 6.0 230 / 23996.9 5.0 1.3 7.2
2017-Dec-08 08:00N 54°48' E 013°48'1212.0 230 / 29996.7 5.9 2.8 7.1
2017-Dec-08 07:00N 54°42' E 014°06'1212.0 240 / 27996.7 6.3 3.1 7.1
2017-Dec-08 06:00N 54°36' E 014°24'1212.0 230 / 25996.6 6.7 3.6 7.3
2017-Dec-08 05:00N 54°42' E 014°42'6 6.4 230 / 25996.1 6.6 4.3 6.8
2017-Dec-08 04:04N 54°44' E 014°52'684.1
2017-Dec-08 04:00N 54°48' E 015°00'7 6.9 230 / 27996.0 6.8 4.6 7.5
2017-Dec-08 03:00N 54°48' E 015°12'9 9.2 230 / 27996.2 6.7 5.0 7.1
2017-Dec-08 02:00N 54°54' E 015°24'7 6.9 230 / 29996.1 6.2 4.7 7.1
2017-Dec-08 01:00N 54°54' E 015°36'9 9.1 220 / 27996.7 5.9 4.7 7.1
2017-Dec-08 00:00N 55°00' E 015°48'7 6.9 220 / 31997.1 5.6 4.4 7.1
2017-Dec-07 23:00N 55°00' E 016°00'9 9.1 220 / 33997.4 5.4 4.2 7.3
2017-Dec-07 22:00N 55°06' E 016°12'7 6.9 210 / 31998.4 5.8 4.4 7.2
2017-Dec-07 21:00N 55°06' E 016°24'9 9.1 210 / 33999.0 5.6 4.3 7.2
2017-Dec-07 20:00N 55°12' E 016°36'7 6.8 210 / 331000.1 5.2 4.1 7.2
2017-Dec-07 19:00N 55°12' E 016°48'7 6.9 210 / 331000.8 5.3 3.4 6.9
2017-Dec-07 18:00N 55°18' E 016°54'7 6.8 210 / 351002.4 6.0 2.5 6.5
2017-Dec-07 17:00N 55°18' E 017°06'9 9.1 210 / 331003.7 6.0 2.4 6.4
2017-Dec-07 16:00N 55°12' E 017°18'7 6.8 210 / 331004.5 6.4 2.2 6.4
2017-Dec-07 15:00N 55°12' E 017°30'7 6.8 220 / 331005.8 6.4 2.0 6.3
2017-Dec-07 14:00N 55°12' E 017°42'7 6.8 220 / 311006.5 6.6 1.7 6.4
2017-Dec-07 13:00N 55°12' E 017°54'7 6.8 230 / 331007.1 6.7 2.0 6.5
2017-Dec-07 12:00N 55°12' E 018°06'9 4.6 240 / 331007.9 7.0 2.9 6.5
2017-Dec-07 10:00N 55°06' E 018°18'3 3.4 240 / 311009.5 7.4 4.2 6.7
2017-Dec-07 09:00N 55°06' E 018°12'   240 / 291009.4 7.5 4.5 6.7

Dump ship's entire track history